sensor_id;sensor_type;location;lat;lon;timestamp;temperature;humidity
23556;DHT22;11956;53.184;8.578;2023-01-08T00:02:19;9.80;99.90
23556;DHT22;11956;53.184;8.578;2023-01-08T00:05:20;9.80;99.90
23556;DHT22;11956;53.184;8.578;2023-01-08T00:08:21;9.80;99.90
23556;DHT22;11956;53.184;8.578;2023-01-08T00:11:22;9.90;99.90
23556;DHT22;11956;53.184;8.578;2023-01-08T00:14:22;9.80;99.90
23556;DHT22;11956;53.184;8.578;2023-01-08T00:17:23;9.90;99.90
23556;DHT22;11956;53.184;8.578;2023-01-08T00:20:25;9.90;99.90
23556;DHT22;11956;53.184;8.578;2023-01-08T00:23:26;10.00;99.90
23556;DHT22;11956;53.184;8.578;2023-01-08T00:26:27;10.10;99.90
23556;DHT22;11956;53.184;8.578;2023-01-08T00:29:29;10.10;99.90
23556;DHT22;11956;53.184;8.578;2023-01-08T00:32:29;10.10;99.90
23556;DHT22;11956;53.184;8.578;2023-01-08T00:35:30;10.20;99.90
23556;DHT22;11956;53.184;8.578;2023-01-08T00:38:31;10.10;99.90
23556;DHT22;11956;53.184;8.578;2023-01-08T00:41:32;10.20;99.90
23556;DHT22;11956;53.184;8.578;2023-01-08T00:44:33;10.20;99.90
23556;DHT22;11956;53.184;8.578;2023-01-08T00:47:34;10.20;99.90
23556;DHT22;11956;53.184;8.578;2023-01-08T00:50:35;10.20;99.90
23556;DHT22;11956;53.184;8.578;2023-01-08T00:53:36;10.30;99.90
23556;DHT22;11956;53.184;8.578;2023-01-08T00:56:37;10.20;99.90
23556;DHT22;11956;53.184;8.578;2023-01-08T00:59:38;10.30;99.90
23556;DHT22;11956;53.184;8.578;2023-01-08T01:02:39;10.30;99.90
23556;DHT22;11956;53.184;8.578;2023-01-08T01:05:40;10.30;99.90
23556;DHT22;11956;53.184;8.578;2023-01-08T01:08:41;10.20;99.90
23556;DHT22;11956;53.184;8.578;2023-01-08T01:11:43;10.20;99.90
23556;DHT22;11956;53.184;8.578;2023-01-08T01:14:44;10.10;99.90
23556;DHT22;11956;53.184;8.578;2023-01-08T01:17:45;10.10;99.90
23556;DHT22;11956;53.184;8.578;2023-01-08T01:20:46;10.20;99.90
23556;DHT22;11956;53.184;8.578;2023-01-08T01:23:47;10.20;99.90
23556;DHT22;11956;53.184;8.578;2023-01-08T01:26:48;10.20;99.90
23556;DHT22;11956;53.184;8.578;2023-01-08T01:29:49;10.30;99.90
23556;DHT22;11956;53.184;8.578;2023-01-08T01:32:50;10.30;99.90
23556;DHT22;11956;53.184;8.578;2023-01-08T01:36:01;10.30;99.90
23556;DHT22;11956;53.184;8.578;2023-01-08T01:39:03;10.20;99.90
23556;DHT22;11956;53.184;8.578;2023-01-08T01:42:05;10.20;99.90
23556;DHT22;11956;53.184;8.578;2023-01-08T01:48:17;10.20;99.90
23556;DHT22;11956;53.184;8.578;2023-01-08T01:51:18;10.20;99.90
23556;DHT22;11956;53.184;8.578;2023-01-08T01:54:20;10.20;99.90
23556;DHT22;11956;53.184;8.578;2023-01-08T01:57:22;10.20;99.90
23556;DHT22;11956;53.184;8.578;2023-01-08T02:00:25;10.20;99.90
23556;DHT22;11956;53.184;8.578;2023-01-08T02:03:29;10.20;99.90
23556;DHT22;11956;53.184;8.578;2023-01-08T02:06:50;10.30;99.90
23556;DHT22;11956;53.184;8.578;2023-01-08T02:10:19;10.30;99.90
23556;DHT22;11956;53.184;8.578;2023-01-08T02:13:37;10.30;99.90
23556;DHT22;11956;53.184;8.578;2023-01-08T02:16:47;10.30;99.90
23556;DHT22;11956;53.184;8.578;2023-01-08T02:20:02;10.30;99.90
23556;DHT22;11956;53.184;8.578;2023-01-08T02:26:36;10.40;99.90
23556;DHT22;11956;53.184;8.578;2023-01-08T02:29:38;10.30;99.90
23556;DHT22;11956;53.184;8.578;2023-01-08T02:32:41;10.30;99.90
23556;DHT22;11956;53.184;8.578;2023-01-08T02:35:51;10.30;99.90
23556;DHT22;11956;53.184;8.578;2023-01-08T02:46:15;10.40;99.90
23556;DHT22;11956;53.184;8.578;2023-01-08T02:49:19;10.40;99.90
23556;DHT22;11956;53.184;8.578;2023-01-08T02:52:20;10.50;99.90
23556;DHT22;11956;53.184;8.578;2023-01-08T02:55:23;10.50;99.90
23556;DHT22;11956;53.184;8.578;2023-01-08T02:58:26;10.60;99.90
23556;DHT22;11956;53.184;8.578;2023-01-08T03:01:31;10.50;99.90
23556;DHT22;11956;53.184;8.578;2023-01-08T03:04:41;10.50;99.90
23556;DHT22;11956;53.184;8.578;2023-01-08T03:07:46;10.40;99.90
23556;DHT22;11956;53.184;8.578;2023-01-08T03:11:03;10.50;99.90
23556;DHT22;11956;53.184;8.578;2023-01-08T03:14:31;10.40;99.90
23556;DHT22;11956;53.184;8.578;2023-01-08T03:17:43;10.50;99.90
23556;DHT22;11956;53.184;8.578;2023-01-08T03:20:48;10.50;99.90
23556;DHT22;11956;53.184;8.578;2023-01-08T03:23:50;10.50;99.90
23556;DHT22;11956;53.184;8.578;2023-01-08T03:26:54;10.50;99.90
23556;DHT22;11956;53.184;8.578;2023-01-08T03:29:58;10.50;99.90
23556;DHT22;11956;53.184;8.578;2023-01-08T03:33:00;10.60;99.90
23556;DHT22;11956;53.184;8.578;2023-01-08T03:36:03;10.50;99.90
23556;DHT22;11956;53.184;8.578;2023-01-08T03:39:27;10.50;99.90
23556;DHT22;11956;53.184;8.578;2023-01-08T03:42:30;10.50;99.90
23556;DHT22;11956;53.184;8.578;2023-01-08T03:45:32;10.50;99.90
23556;DHT22;11956;53.184;8.578;2023-01-08T03:48:34;10.50;99.90
23556;DHT22;11956;53.184;8.578;2023-01-08T03:51:44;10.50;99.90
23556;DHT22;11956;53.184;8.578;2023-01-08T03:54:46;10.40;99.90
23556;DHT22;11956;53.184;8.578;2023-01-08T04:00:56;10.40;99.90
23556;DHT22;11956;53.184;8.578;2023-01-08T04:03:57;10.40;99.90
23556;DHT22;11956;53.184;8.578;2023-01-08T04:06:58;10.40;99.90
23556;DHT22;11956;53.184;8.578;2023-01-08T04:09:59;10.40;99.90
23556;DHT22;11956;53.184;8.578;2023-01-08T04:13:00;10.50;99.90
23556;DHT22;11956;53.184;8.578;2023-01-08T04:16:00;10.50;99.90
23556;DHT22;11956;53.184;8.578;2023-01-08T04:19:01;10.40;99.90
23556;DHT22;11956;53.184;8.578;2023-01-08T04:22:02;10.40;99.90
23556;DHT22;11956;53.184;8.578;2023-01-08T04:25:03;10.40;99.90
23556;DHT22;11956;53.184;8.578;2023-01-08T04:28:04;10.40;99.90
23556;DHT22;11956;53.184;8.578;2023-01-08T04:31:06;10.40;99.90
23556;DHT22;11956;53.184;8.578;2023-01-08T04:34:09;10.40;99.90
23556;DHT22;11956;53.184;8.578;2023-01-08T04:37:09;10.40;99.90
23556;DHT22;11956;53.184;8.578;2023-01-08T04:40:10;10.30;99.90
23556;DHT22;11956;53.184;8.578;2023-01-08T04:43:11;10.30;99.90
23556;DHT22;11956;53.184;8.578;2023-01-08T04:46:12;10.30;99.90
23556;DHT22;11956;53.184;8.578;2023-01-08T04:49:13;10.20;99.90
23556;DHT22;11956;53.184;8.578;2023-01-08T04:52:14;10.10;99.90
23556;DHT22;11956;53.184;8.578;2023-01-08T04:55:15;10.00;99.90
23556;DHT22;11956;53.184;8.578;2023-01-08T04:58:16;10.00;99.90
23556;DHT22;11956;53.184;8.578;2023-01-08T05:01:24;9.90;99.90
23556;DHT22;11956;53.184;8.578;2023-01-08T05:04:26;9.90;99.90
23556;DHT22;11956;53.184;8.578;2023-01-08T05:07:27;9.90;99.90
23556;DHT22;11956;53.184;8.578;2023-01-08T05:10:28;9.90;99.90
23556;DHT22;11956;53.184;8.578;2023-01-08T05:13:29;9.80;99.90
23556;DHT22;11956;53.184;8.578;2023-01-08T05:16:30;9.80;99.90
23556;DHT22;11956;53.184;8.578;2023-01-08T05:19:31;9.80;99.90
23556;DHT22;11956;53.184;8.578;2023-01-08T05:22:32;9.80;99.90
23556;DHT22;11956;53.184;8.578;2023-01-08T05:25:34;9.80;99.90
23556;DHT22;11956;53.184;8.578;2023-01-08T05:28:35;9.90;99.90
23556;DHT22;11956;53.184;8.578;2023-01-08T05:31:35;9.80;99.90
23556;DHT22;11956;53.184;8.578;2023-01-08T05:34:36;9.80;99.90
23556;DHT22;11956;53.184;8.578;2023-01-08T05:37:37;9.70;99.90
23556;DHT22;11956;53.184;8.578;2023-01-08T05:40:38;9.70;99.90
23556;DHT22;11956;53.184;8.578;2023-01-08T05:43:39;9.70;99.90
23556;DHT22;11956;53.184;8.578;2023-01-08T05:46:40;9.70;99.90
23556;DHT22;11956;53.184;8.578;2023-01-08T05:49:41;9.80;99.90
23556;DHT22;11956;53.184;8.578;2023-01-08T05:52:42;9.70;99.90
23556;DHT22;11956;53.184;8.578;2023-01-08T05:55:44;9.70;99.90
23556;DHT22;11956;53.184;8.578;2023-01-08T05:58:45;9.70;99.90
23556;DHT22;11956;53.184;8.578;2023-01-08T06:01:45;9.70;99.90
23556;DHT22;11956;53.184;8.578;2023-01-08T06:04:46;9.70;99.90
23556;DHT22;11956;53.184;8.578;2023-01-08T06:07:47;9.60;99.90
23556;DHT22;11956;53.184;8.578;2023-01-08T06:10:48;9.70;99.90
23556;DHT22;11956;53.184;8.578;2023-01-08T06:13:49;9.70;99.90
23556;DHT22;11956;53.184;8.578;2023-01-08T06:16:49;9.70;99.90
23556;DHT22;11956;53.184;8.578;2023-01-08T06:19:50;9.80;99.90
23556;DHT22;11956;53.184;8.578;2023-01-08T06:22:52;9.70;99.90
23556;DHT22;11956;53.184;8.578;2023-01-08T06:25:54;9.70;99.90
23556;DHT22;11956;53.184;8.578;2023-01-08T06:28:56;9.70;99.90
23556;DHT22;11956;53.184;8.578;2023-01-08T06:31:57;9.70;99.90
23556;DHT22;11956;53.184;8.578;2023-01-08T06:34:58;9.70;99.90
23556;DHT22;11956;53.184;8.578;2023-01-08T06:37:58;9.70;99.90
23556;DHT22;11956;53.184;8.578;2023-01-08T06:41:08;9.60;99.90
23556;DHT22;11956;53.184;8.578;2023-01-08T06:44:09;9.50;99.90
23556;DHT22;11956;53.184;8.578;2023-01-08T06:47:10;9.50;99.90
23556;DHT22;11956;53.184;8.578;2023-01-08T06:50:11;9.50;99.90
23556;DHT22;11956;53.184;8.578;2023-01-08T06:53:12;9.40;99.90
23556;DHT22;11956;53.184;8.578;2023-01-08T06:56:13;9.40;99.90
23556;DHT22;11956;53.184;8.578;2023-01-08T06:59:14;9.30;99.90
23556;DHT22;11956;53.184;8.578;2023-01-08T07:02:16;9.40;99.90
23556;DHT22;11956;53.184;8.578;2023-01-08T07:05:18;9.30;99.90
23556;DHT22;11956;53.184;8.578;2023-01-08T07:08:19;9.30;99.90
23556;DHT22;11956;53.184;8.578;2023-01-08T07:11:19;9.40;99.90
23556;DHT22;11956;53.184;8.578;2023-01-08T07:14:20;9.30;99.90
23556;DHT22;11956;53.184;8.578;2023-01-08T07:17:21;9.30;99.90
23556;DHT22;11956;53.184;8.578;2023-01-08T07:20:22;9.40;99.90
23556;DHT22;11956;53.184;8.578;2023-01-08T07:23:23;9.30;99.90
23556;DHT22;11956;53.184;8.578;2023-01-08T07:26:24;9.40;99.90
23556;DHT22;11956;53.184;8.578;2023-01-08T07:29:24;9.40;99.90
23556;DHT22;11956;53.184;8.578;2023-01-08T07:32:26;9.40;99.90
23556;DHT22;11956;53.184;8.578;2023-01-08T07:35:27;9.50;99.90
23556;DHT22;11956;53.184;8.578;2023-01-08T07:38:28;9.40;99.90
23556;DHT22;11956;53.184;8.578;2023-01-08T07:41:29;9.50;99.90
23556;DHT22;11956;53.184;8.578;2023-01-08T07:44:31;9.50;99.90
23556;DHT22;11956;53.184;8.578;2023-01-08T07:47:31;9.50;99.90
23556;DHT22;11956;53.184;8.578;2023-01-08T07:50:32;9.50;99.90
23556;DHT22;11956;53.184;8.578;2023-01-08T07:53:34;9.60;99.90
23556;DHT22;11956;53.184;8.578;2023-01-08T07:56:36;9.60;99.90
23556;DHT22;11956;53.184;8.578;2023-01-08T07:59:37;9.60;99.90
23556;DHT22;11956;53.184;8.578;2023-01-08T08:02:38;9.60;99.90
23556;DHT22;11956;53.184;8.578;2023-01-08T08:05:39;9.60;99.90
23556;DHT22;11956;53.184;8.578;2023-01-08T08:08:40;9.60;99.90
23556;DHT22;11956;53.184;8.578;2023-01-08T08:11:41;9.70;99.90
23556;DHT22;11956;53.184;8.578;2023-01-08T08:14:42;9.70;99.90
23556;DHT22;11956;53.184;8.578;2023-01-08T08:17:46;9.80;99.90
23556;DHT22;11956;53.184;8.578;2023-01-08T08:20:47;9.80;99.90
23556;DHT22;11956;53.184;8.578;2023-01-08T08:23:51;9.80;99.90
23556;DHT22;11956;53.184;8.578;2023-01-08T08:26:52;9.90;99.90
23556;DHT22;11956;53.184;8.578;2023-01-08T08:29:53;9.80;99.90
23556;DHT22;11956;53.184;8.578;2023-01-08T08:32:56;9.80;99.90
23556;DHT22;11956;53.184;8.578;2023-01-08T08:35:58;9.80;99.90
23556;DHT22;11956;53.184;8.578;2023-01-08T08:39:01;9.80;99.90
23556;DHT22;11956;53.184;8.578;2023-01-08T08:42:03;9.90;99.90
23556;DHT22;11956;53.184;8.578;2023-01-08T08:45:05;9.90;99.90
23556;DHT22;11956;53.184;8.578;2023-01-08T08:48:08;10.00;99.90
23556;DHT22;11956;53.184;8.578;2023-01-08T08:51:11;10.00;99.90
23556;DHT22;11956;53.184;8.578;2023-01-08T08:54:12;10.10;99.90
23556;DHT22;11956;53.184;8.578;2023-01-08T08:57:13;10.20;99.90
23556;DHT22;11956;53.184;8.578;2023-01-08T09:00:14;10.20;99.90
23556;DHT22;11956;53.184;8.578;2023-01-08T09:03:15;10.20;99.90
23556;DHT22;11956;53.184;8.578;2023-01-08T09:06:16;10.20;99.90
23556;DHT22;11956;53.184;8.578;2023-01-08T09:09:17;10.20;99.90
23556;DHT22;11956;53.184;8.578;2023-01-08T09:12:19;10.10;99.90
23556;DHT22;11956;53.184;8.578;2023-01-08T09:15:20;10.10;99.90
23556;DHT22;11956;53.184;8.578;2023-01-08T09:18:21;10.10;99.90
23556;DHT22;11956;53.184;8.578;2023-01-08T09:21:22;10.10;99.90
23556;DHT22;11956;53.184;8.578;2023-01-08T09:24:23;10.20;99.90
23556;DHT22;11956;53.184;8.578;2023-01-08T09:27:24;10.20;99.90
23556;DHT22;11956;53.184;8.578;2023-01-08T09:30:25;10.20;99.90
23556;DHT22;11956;53.184;8.578;2023-01-08T09:33:26;10.20;99.90
23556;DHT22;11956;53.184;8.578;2023-01-08T09:36:27;10.20;99.90
23556;DHT22;11956;53.184;8.578;2023-01-08T09:39:28;10.10;99.90
23556;DHT22;11956;53.184;8.578;2023-01-08T09:42:30;10.20;99.90
23556;DHT22;11956;53.184;8.578;2023-01-08T09:45:34;10.30;99.90
23556;DHT22;11956;53.184;8.578;2023-01-08T09:48:38;10.50;99.90
23556;DHT22;11956;53.184;8.578;2023-01-08T09:51:40;10.70;99.90
23556;DHT22;11956;53.184;8.578;2023-01-08T09:54:41;11.40;99.90
23556;DHT22;11956;53.184;8.578;2023-01-08T09:57:43;12.50;99.90
23556;DHT22;11956;53.184;8.578;2023-01-08T10:04:11;14.10;99.90
23556;DHT22;11956;53.184;8.578;2023-01-08T10:07:19;14.00;99.90
23556;DHT22;11956;53.184;8.578;2023-01-08T10:10:25;15.50;99.90
23556;DHT22;11956;53.184;8.578;2023-01-08T10:13:28;16.20;99.90
23556;DHT22;11956;53.184;8.578;2023-01-08T10:16:32;16.60;99.90
23556;DHT22;11956;53.184;8.578;2023-01-08T10:19:36;17.70;99.90
23556;DHT22;11956;53.184;8.578;2023-01-08T10:22:36;18.70;99.90
23556;DHT22;11956;53.184;8.578;2023-01-08T10:25:53;18.70;99.90
23556;DHT22;11956;53.184;8.578;2023-01-08T10:29:12;18.90;99.90
23556;DHT22;11956;53.184;8.578;2023-01-08T10:32:22;19.10;99.90
23556;DHT22;11956;53.184;8.578;2023-01-08T10:35:33;19.20;99.90
23556;DHT22;11956;53.184;8.578;2023-01-08T10:38:39;18.50;99.90
23556;DHT22;11956;53.184;8.578;2023-01-08T10:41:42;18.80;99.90
23556;DHT22;11956;53.184;8.578;2023-01-08T10:44:54;18.90;99.90
23556;DHT22;11956;53.184;8.578;2023-01-08T10:48:02;17.80;99.90
23556;DHT22;11956;53.184;8.578;2023-01-08T10:51:26;16.90;99.90
23556;DHT22;11956;53.184;8.578;2023-01-08T10:54:34;15.50;99.90
23556;DHT22;11956;53.184;8.578;2023-01-08T10:57:39;14.20;99.90
23556;DHT22;11956;53.184;8.578;2023-01-08T11:00:41;13.60;99.90
23556;DHT22;11956;53.184;8.578;2023-01-08T11:03:42;13.10;99.90
23556;DHT22;11956;53.184;8.578;2023-01-08T11:06:49;12.70;99.90
23556;DHT22;11956;53.184;8.578;2023-01-08T11:09:51;12.20;99.90
23556;DHT22;11956;53.184;8.578;2023-01-08T11:13:03;11.90;99.90
23556;DHT22;11956;53.184;8.578;2023-01-08T11:16:08;11.80;99.90
23556;DHT22;11956;53.184;8.578;2023-01-08T11:19:25;11.60;99.90
23556;DHT22;11956;53.184;8.578;2023-01-08T11:22:28;11.50;99.90
23556;DHT22;11956;53.184;8.578;2023-01-08T11:25:31;11.30;99.90
23556;DHT22;11956;53.184;8.578;2023-01-08T11:32:36;11.20;99.90
23556;DHT22;11956;53.184;8.578;2023-01-08T11:36:09;11.20;99.90
23556;DHT22;11956;53.184;8.578;2023-01-08T11:39:13;11.20;99.90
23556;DHT22;11956;53.184;8.578;2023-01-08T11:42:29;11.20;99.90
23556;DHT22;11956;53.184;8.578;2023-01-08T11:46:03;11.20;99.90
23556;DHT22;11956;53.184;8.578;2023-01-08T11:50:25;11.10;99.90
23556;DHT22;11956;53.184;8.578;2023-01-08T12:03:30;11.20;99.90
23556;DHT22;11956;53.184;8.578;2023-01-08T12:10:22;11.10;99.90
23556;DHT22;11956;53.184;8.578;2023-01-08T12:23:37;11.00;99.90
23556;DHT22;11956;53.184;8.578;2023-01-08T12:26:56;11.00;99.90
23556;DHT22;11956;53.184;8.578;2023-01-08T12:33:49;11.00;99.90
23556;DHT22;11956;53.184;8.578;2023-01-08T12:40:48;11.00;99.90
23556;DHT22;11956;53.184;8.578;2023-01-08T12:44:04;11.10;99.90
23556;DHT22;11956;53.184;8.578;2023-01-08T12:47:14;11.00;99.90
23556;DHT22;11956;53.184;8.578;2023-01-08T12:50:25;11.10;99.90
23556;DHT22;11956;53.184;8.578;2023-01-08T12:53:57;11.00;99.90
23556;DHT22;11956;53.184;8.578;2023-01-08T13:00:42;11.00;99.90
23556;DHT22;11956;53.184;8.578;2023-01-08T13:03:45;11.00;99.90
23556;DHT22;11956;53.184;8.578;2023-01-08T13:10:07;10.90;99.90
23556;DHT22;11956;53.184;8.578;2023-01-08T13:16:44;10.90;99.90
23556;DHT22;11956;53.184;8.578;2023-01-08T13:19:52;10.70;99.90
23556;DHT22;11956;53.184;8.578;2023-01-08T13:22:56;10.60;99.90
23556;DHT22;11956;53.184;8.578;2023-01-08T13:26:03;10.60;99.90
23556;DHT22;11956;53.184;8.578;2023-01-08T13:29:35;10.60;99.90
23556;DHT22;11956;53.184;8.578;2023-01-08T13:32:47;10.70;99.90
23556;DHT22;11956;53.184;8.578;2023-01-08T13:35:48;10.60;99.90
23556;DHT22;11956;53.184;8.578;2023-01-08T13:45:13;10.80;99.90
23556;DHT22;11956;53.184;8.578;2023-01-08T13:48:22;10.90;99.90
23556;DHT22;11956;53.184;8.578;2023-01-08T13:51:44;10.80;99.90
23556;DHT22;11956;53.184;8.578;2023-01-08T13:54:47;10.70;99.90
23556;DHT22;11956;53.184;8.578;2023-01-08T13:57:52;10.70;99.90
23556;DHT22;11956;53.184;8.578;2023-01-08T14:00:56;10.60;99.90
23556;DHT22;11956;53.184;8.578;2023-01-08T14:03:57;10.60;99.90
23556;DHT22;11956;53.184;8.578;2023-01-08T14:07:11;10.50;99.90
23556;DHT22;11956;53.184;8.578;2023-01-08T14:10:15;10.50;99.90
23556;DHT22;11956;53.184;8.578;2023-01-08T14:13:17;10.50;99.90
23556;DHT22;11956;53.184;8.578;2023-01-08T14:16:22;10.50;99.90
23556;DHT22;11956;53.184;8.578;2023-01-08T14:19:24;10.40;99.90
23556;DHT22;11956;53.184;8.578;2023-01-08T14:22:31;10.40;99.90
23556;DHT22;11956;53.184;8.578;2023-01-08T14:25:33;10.40;99.90
23556;DHT22;11956;53.184;8.578;2023-01-08T14:28:34;10.40;99.90
23556;DHT22;11956;53.184;8.578;2023-01-08T14:31:36;10.40;99.90
23556;DHT22;11956;53.184;8.578;2023-01-08T14:34:39;10.40;99.90
23556;DHT22;11956;53.184;8.578;2023-01-08T14:37:41;10.50;99.90
23556;DHT22;11956;53.184;8.578;2023-01-08T14:40:46;10.50;99.90
23556;DHT22;11956;53.184;8.578;2023-01-08T14:43:50;10.40;99.90
23556;DHT22;11956;53.184;8.578;2023-01-08T14:46:52;10.40;99.90
23556;DHT22;11956;53.184;8.578;2023-01-08T14:49:53;10.40;99.90
23556;DHT22;11956;53.184;8.578;2023-01-08T14:52:58;10.40;99.90
23556;DHT22;11956;53.184;8.578;2023-01-08T14:56:24;10.40;99.90
23556;DHT22;11956;53.184;8.578;2023-01-08T14:59:31;10.40;99.90
23556;DHT22;11956;53.184;8.578;2023-01-08T15:02:34;10.40;99.90
23556;DHT22;11956;53.184;8.578;2023-01-08T15:05:47;10.40;99.90
23556;DHT22;11956;53.184;8.578;2023-01-08T15:08:49;10.30;99.90
23556;DHT22;11956;53.184;8.578;2023-01-08T15:11:55;10.20;99.90
23556;DHT22;11956;53.184;8.578;2023-01-08T15:15:20;10.00;99.90
23556;DHT22;11956;53.184;8.578;2023-01-08T15:18:22;9.90;99.90
23556;DHT22;11956;53.184;8.578;2023-01-08T15:21:23;9.80;99.90
23556;DHT22;11956;53.184;8.578;2023-01-08T15:24:32;9.80;99.90
23556;DHT22;11956;53.184;8.578;2023-01-08T15:27:34;9.70;99.90
23556;DHT22;11956;53.184;8.578;2023-01-08T15:30:42;9.70;99.90
23556;DHT22;11956;53.184;8.578;2023-01-08T15:33:44;9.60;99.90
23556;DHT22;11956;53.184;8.578;2023-01-08T15:36:46;9.50;99.90
23556;DHT22;11956;53.184;8.578;2023-01-08T15:39:47;9.40;99.90
23556;DHT22;11956;53.184;8.578;2023-01-08T15:42:48;9.40;99.90
23556;DHT22;11956;53.184;8.578;2023-01-08T15:46:10;9.20;99.90
23556;DHT22;11956;53.184;8.578;2023-01-08T15:49:11;8.90;99.90
23556;DHT22;11956;53.184;8.578;2023-01-08T15:52:12;8.80;99.90
23556;DHT22;11956;53.184;8.578;2023-01-08T15:55:20;8.80;99.90
23556;DHT22;11956;53.184;8.578;2023-01-08T15:58:22;8.60;99.90
23556;DHT22;11956;53.184;8.578;2023-01-08T16:01:24;8.60;99.90
23556;DHT22;11956;53.184;8.578;2023-01-08T16:04:27;8.60;99.90
23556;DHT22;11956;53.184;8.578;2023-01-08T16:07:28;8.60;99.90
23556;DHT22;11956;53.184;8.578;2023-01-08T16:10:28;8.50;99.90
23556;DHT22;11956;53.184;8.578;2023-01-08T16:13:29;8.50;99.90
23556;DHT22;11956;53.184;8.578;2023-01-08T16:16:30;8.50;99.90
23556;DHT22;11956;53.184;8.578;2023-01-08T16:19:31;8.50;99.90
23556;DHT22;11956;53.184;8.578;2023-01-08T16:22:32;8.40;99.90
23556;DHT22;11956;53.184;8.578;2023-01-08T16:25:33;8.40;99.90
23556;DHT22;11956;53.184;8.578;2023-01-08T16:28:34;8.30;99.90
23556;DHT22;11956;53.184;8.578;2023-01-08T16:31:35;8.30;99.90
23556;DHT22;11956;53.184;8.578;2023-01-08T16:34:36;8.30;99.90
23556;DHT22;11956;53.184;8.578;2023-01-08T16:37:37;8.30;99.90
23556;DHT22;11956;53.184;8.578;2023-01-08T16:40:39;8.30;99.90
23556;DHT22;11956;53.184;8.578;2023-01-08T16:43:40;8.30;99.90
23556;DHT22;11956;53.184;8.578;2023-01-08T16:46:41;8.40;99.90
23556;DHT22;11956;53.184;8.578;2023-01-08T16:49:42;8.40;99.90
23556;DHT22;11956;53.184;8.578;2023-01-08T16:52:42;8.40;99.90
23556;DHT22;11956;53.184;8.578;2023-01-08T16:55:43;8.40;99.90
23556;DHT22;11956;53.184;8.578;2023-01-08T16:58:44;8.30;99.90
23556;DHT22;11956;53.184;8.578;2023-01-08T17:01:50;8.30;99.90
23556;DHT22;11956;53.184;8.578;2023-01-08T17:04:51;8.20;99.90
23556;DHT22;11956;53.184;8.578;2023-01-08T17:07:53;8.20;99.90
23556;DHT22;11956;53.184;8.578;2023-01-08T17:10:54;8.10;99.90
23556;DHT22;11956;53.184;8.578;2023-01-08T17:13:55;8.10;99.90
23556;DHT22;11956;53.184;8.578;2023-01-08T17:16:56;8.00;99.90
23556;DHT22;11956;53.184;8.578;2023-01-08T17:19:57;7.90;99.90
23556;DHT22;11956;53.184;8.578;2023-01-08T17:22:58;7.90;99.90
23556;DHT22;11956;53.184;8.578;2023-01-08T17:26:05;7.80;99.90
23556;DHT22;11956;53.184;8.578;2023-01-08T17:29:07;7.70;99.90
23556;DHT22;11956;53.184;8.578;2023-01-08T17:32:08;7.80;99.90
23556;DHT22;11956;53.184;8.578;2023-01-08T17:35:11;7.90;99.90
23556;DHT22;11956;53.184;8.578;2023-01-08T17:38:11;7.80;99.90
23556;DHT22;11956;53.184;8.578;2023-01-08T17:41:12;7.80;99.90
23556;DHT22;11956;53.184;8.578;2023-01-08T17:44:33;7.70;99.90
23556;DHT22;11956;53.184;8.578;2023-01-08T17:47:34;7.60;99.90
23556;DHT22;11956;53.184;8.578;2023-01-08T17:50:39;7.50;99.90
23556;DHT22;11956;53.184;8.578;2023-01-08T17:53:40;7.50;99.90
23556;DHT22;11956;53.184;8.578;2023-01-08T17:56:41;7.50;99.90
23556;DHT22;11956;53.184;8.578;2023-01-08T17:59:46;7.40;99.90
23556;DHT22;11956;53.184;8.578;2023-01-08T18:02:47;7.40;99.90
23556;DHT22;11956;53.184;8.578;2023-01-08T18:05:48;7.30;99.90
23556;DHT22;11956;53.184;8.578;2023-01-08T18:08:49;7.20;99.90
23556;DHT22;11956;53.184;8.578;2023-01-08T18:11:50;7.10;99.90
23556;DHT22;11956;53.184;8.578;2023-01-08T18:14:51;7.00;99.90
23556;DHT22;11956;53.184;8.578;2023-01-08T18:17:52;7.00;99.90
23556;DHT22;11956;53.184;8.578;2023-01-08T18:20:52;7.00;99.90
23556;DHT22;11956;53.184;8.578;2023-01-08T18:23:54;6.90;99.90
23556;DHT22;11956;53.184;8.578;2023-01-08T18:26:55;6.80;99.90
23556;DHT22;11956;53.184;8.578;2023-01-08T18:29:57;6.80;99.90
23556;DHT22;11956;53.184;8.578;2023-01-08T18:32:58;6.70;99.90
23556;DHT22;11956;53.184;8.578;2023-01-08T18:36:00;6.60;99.90
23556;DHT22;11956;53.184;8.578;2023-01-08T18:39:05;6.60;99.90
23556;DHT22;11956;53.184;8.578;2023-01-08T18:42:07;6.50;99.90
23556;DHT22;11956;53.184;8.578;2023-01-08T18:45:27;6.50;99.90
23556;DHT22;11956;53.184;8.578;2023-01-08T18:48:34;6.50;99.90
23556;DHT22;11956;53.184;8.578;2023-01-08T18:51:35;6.50;99.90
23556;DHT22;11956;53.184;8.578;2023-01-08T18:54:36;6.40;99.90
23556;DHT22;11956;53.184;8.578;2023-01-08T18:57:37;6.40;99.90
23556;DHT22;11956;53.184;8.578;2023-01-08T19:00:38;6.30;99.90
23556;DHT22;11956;53.184;8.578;2023-01-08T19:03:39;6.20;99.90
23556;DHT22;11956;53.184;8.578;2023-01-08T19:06:40;6.20;99.90
23556;DHT22;11956;53.184;8.578;2023-01-08T19:09:41;6.10;99.90
23556;DHT22;11956;53.184;8.578;2023-01-08T19:12:43;6.00;99.90
23556;DHT22;11956;53.184;8.578;2023-01-08T19:15:45;6.00;99.90
23556;DHT22;11956;53.184;8.578;2023-01-08T19:18:46;6.00;99.90
23556;DHT22;11956;53.184;8.578;2023-01-08T19:21:47;5.90;99.90
23556;DHT22;11956;53.184;8.578;2023-01-08T19:24:48;5.90;99.90
23556;DHT22;11956;53.184;8.578;2023-01-08T19:27:50;5.90;99.90
23556;DHT22;11956;53.184;8.578;2023-01-08T19:30:56;5.90;99.90
23556;DHT22;11956;53.184;8.578;2023-01-08T19:33:58;5.90;99.90
23556;DHT22;11956;53.184;8.578;2023-01-08T19:37:00;5.90;99.90
23556;DHT22;11956;53.184;8.578;2023-01-08T19:40:01;5.90;99.90
23556;DHT22;11956;53.184;8.578;2023-01-08T19:43:02;5.90;99.90
23556;DHT22;11956;53.184;8.578;2023-01-08T19:46:22;5.90;99.90
23556;DHT22;11956;53.184;8.578;2023-01-08T19:49:23;5.90;99.90
23556;DHT22;11956;53.184;8.578;2023-01-08T19:52:25;5.90;99.90
23556;DHT22;11956;53.184;8.578;2023-01-08T19:55:27;5.90;99.90
23556;DHT22;11956;53.184;8.578;2023-01-08T19:58:28;5.90;99.90
23556;DHT22;11956;53.184;8.578;2023-01-08T20:01:29;5.80;99.90
23556;DHT22;11956;53.184;8.578;2023-01-08T20:04:30;5.80;99.90
23556;DHT22;11956;53.184;8.578;2023-01-08T20:07:32;5.80;99.90
23556;DHT22;11956;53.184;8.578;2023-01-08T20:10:33;5.90;99.90
23556;DHT22;11956;53.184;8.578;2023-01-08T20:13:34;5.90;99.90
23556;DHT22;11956;53.184;8.578;2023-01-08T20:16:36;6.00;99.90
23556;DHT22;11956;53.184;8.578;2023-01-08T20:19:37;6.00;99.90
23556;DHT22;11956;53.184;8.578;2023-01-08T20:22:37;6.00;99.90
23556;DHT22;11956;53.184;8.578;2023-01-08T20:25:38;6.00;99.90
23556;DHT22;11956;53.184;8.578;2023-01-08T20:28:43;6.10;99.90
23556;DHT22;11956;53.184;8.578;2023-01-08T20:31:45;6.10;99.90
23556;DHT22;11956;53.184;8.578;2023-01-08T20:34:45;6.10;99.90
23556;DHT22;11956;53.184;8.578;2023-01-08T20:37:46;6.10;99.90
23556;DHT22;11956;53.184;8.578;2023-01-08T20:40:50;6.10;99.90
23556;DHT22;11956;53.184;8.578;2023-01-08T20:43:51;6.00;99.90